Highlands Peak, California Weather observations

Data are for observation ending at time listed.
 Day   Time    Ave.   Ave.  Ave.  Vector   Max.   Stn.    Total    Solar   Ave.  
  of    of     Air    Rel.  Wind   Wind    Wind   Baro.  Precip.   Rad.    Soil  
Year   Day     Temp.  Hum.  Speed  Dir.    Gust   Pres.                    Temp. 
2014   (PST)    F      %     mph   deg.    mph     mb.     in.     W/m2     F   
------------------------------------------------------------------------------
 205   20:50   77.6    27    3.8   334      6.4   926.9    0.00       0    89.6
 205   21:00   78.1    27    2.5    13      4.1   926.9    0.00       0    89.4
 205   21:10   78.3    26    2.9    91      4.1   927.0    0.00       0    89.2
 205   21:20   78.2    26    3.5   100      5.4   927.0    0.00       0    88.7
 205   21:30   78.9    26    4.2    92      5.9   927.1    0.00       0    88.4
 205   21:40   79.4    25    4.9    84      8.8   927.2    0.00       0    88.3
 205   21:50   79.2    25    6.1    99      8.6   927.2    0.00       0    88.0
 205   22:00   78.9    25    4.6   119      6.6   927.3    0.00       0    87.4
 205   22:10   79.0    25    3.2    90      4.1   927.2    0.00       0    87.2
 205   22:20   79.7    25    1.9    94      3.6   927.3    0.00       0    87.2
 205   22:30   79.8    25    1.4    98      3.8   927.3    0.00       0    87.0
 205   22:40   79.1    26    3.5   108      4.7   927.3    0.00       0    86.8
 205   22:50   78.3    26    3.9    91      4.7   927.2    0.00       0    86.5
 205   23:00   78.2    27    1.7    52      3.9   927.2    0.00       0    86.4
 205   23:10   78.8    26    0.8   276      2.0   927.2    0.00       0    86.2
 205   23:20   79.3    25    1.2   274      1.7   927.3    0.00       0    86.0
 205   23:30   79.1    25    1.1   306      1.9   927.2    0.00       0    85.8
 205   23:40   78.5    26    0.9   189      2.6   927.2    0.00       0    85.6
 205   23:50   78.6    25    2.0   298      3.0   927.1    0.00       0    85.4
 206    0:00   78.2    26    2.6   320      5.4   927.1    0.00       0    85.3
 206    0:10   77.4    28    3.0    41      6.1   927.1    0.00       0    85.1
 206    0:20   77.3    28    4.1    74      6.1   927.0    0.00       0    84.9
 206    0:30   77.1    28    1.6    92      4.9   927.0    0.00       0    84.7
 206    0:40   78.1    27    0.7   232      2.6   926.9    0.00       0    84.4
 206    0:50   77.6    28    3.0   110      3.8   926.8    0.00       0    84.1
 206    1:00   77.9    28    2.9   104      3.4   926.8    0.00       0    83.9
 206    1:10   78.4    27    2.0   122      3.1   926.8    0.00       0    83.7
 206    1:20   78.7    28    1.3   117      2.8   926.8    0.00       0    83.5
 206    1:30   77.6    29    1.8   146      3.4   926.8    0.00       0    83.4
 206    1:40   77.7    27    0.3   185      1.8   926.7    0.00       0    83.1
 206    1:50   76.9    28    0.1   179      1.3   926.7    0.00       0    82.9
 206    2:00   76.4    28    0.3   236      1.5   926.6    0.00       0    82.7
 206    2:10   76.8    29    1.2   295      2.3   926.6    0.00       0    82.6
 206    2:20   77.2    28    1.8   322      3.3   926.6    0.00       0    82.5
 206    2:30   76.7    30    3.1   338      4.6   926.6    0.00       0    82.4
 206    2:40   76.1    32    3.1    26      4.6   926.6    0.00       0    82.3
 206    2:50   76.3    31    2.2     1      3.4   926.6    0.00       0    82.2
 206    3:00   76.5    31    2.3    30      3.9   926.6    0.00       0    82.1
 206    3:10   76.7    31    2.2    75      3.1   926.6    0.00       0    82.0
 206    3:20   76.4    31    1.7   104      3.0   926.7    0.00       0    81.8
 206    3:30   76.7    30    2.0   110      2.6   926.7    0.00       0    81.6
 206    3:40   76.6    30    2.8   136      3.4   926.7    0.00       0    81.1
 206    3:50   76.7    30    2.9   128      3.3   926.6    0.00       0    80.9
 206    4:00   76.4    30    2.8   103      3.5   926.6    0.00       0    80.8
 206    4:10   77.1    30    0.7   128      3.5   926.6    0.00       0    80.7
 206    4:20   76.6    30    2.5   104      4.0   926.7    0.00       0    80.7
 206    4:30   76.8    30    2.9   129      3.4   926.7    0.00       0    80.4
 206    4:40   77.2    30    3.1   138      3.9   926.7    0.00       0    80.0
 206    4:50   77.2    30    2.3   155      3.0   926.8    0.00       0    79.9
 206    5:00   77.1    30    2.4   167      3.1   926.9    0.00       1    79.7
 206    5:10   77.1    30    3.7   138      5.5   927.0    0.00       4    79.5
 206    5:20   77.0    30    4.0   130      6.1   927.0    0.00       7    79.3
 206    5:30   76.6    31    3.0   123      4.7   927.0    0.00      14    79.3
 206    5:40   76.9    31    3.1   156      3.7   927.1    0.00      15    79.1
 206    5:50   76.8    31    1.7   168      2.9   927.2    0.00      16    79.0
 206    6:00   76.1    32    1.8    76      4.3   927.2    0.00      21    79.1
 206    6:10   75.1    33    3.9    81      5.3   927.3    0.00      33    79.1
 206    6:20   76.4    32    3.0    89      5.6   927.4    0.00     195    79.0
 206    6:30   79.3    29    0.7    84      2.1   927.5    0.00     246    78.9
 206    6:40   78.6    29    1.2   258      2.9   927.6    0.00     281    78.8
 206    6:50   77.8    30    0.9   302      1.9   927.8    0.00     322    78.8
 206    7:00   79.6    30    2.7    91      4.2   927.8    0.00     357    78.8
 206    7:10   80.2    29    1.5    84      3.1   927.8    0.00     391    78.8
 206    7:20   80.0    29    1.6   282      2.5   927.9    0.00     434    78.8
 206    7:30   78.6    30    1.7   276      2.5   928.0    0.00     460    78.8
 206    7:40   78.9    31    1.1   295      2.3   928.1    0.00     512    78.8
 206    7:50   79.8    29    1.9   257      3.7   928.2    0.00     546    78.9
 206    8:00   79.4    30    1.8   270      2.7   928.2    0.00     579    78.9
 206    8:10   79.8    29    2.3   274      3.3   928.2    0.00     610    78.9
 206    8:20   80.3    30    2.1   242      4.6   928.3    0.00     643    79.1
 206    8:30   81.0    30    2.9   278      4.8   928.3    0.00     677    79.2
 206    8:40   80.2    30    4.4   276      5.3   928.3    0.00     709    79.3
 206    8:50   79.8    30    3.5   278      5.0   928.3    0.00     740    79.5
 206    9:00   80.2    29    3.2   275      4.8   928.4    0.00     772    79.7
 206    9:10   80.5    29    4.1   272      6.0   928.4    0.00     807    79.9
 206    9:20   80.3    30    4.5   276      7.0   928.5    0.00     839    80.1
 206    9:30   79.7    29    3.8   276      5.9   928.5    0.00     865    80.3
 206    9:40   80.1    29    3.7   275      5.6   928.5    0.00     889    80.6
 206    9:50   80.5    29    3.7   261      6.1   928.5    0.00     912    80.9
 206   10:00   81.1    29    4.1   262      6.3   928.5    0.00     932    81.2
 206   10:10   81.0    30    4.1   266      6.4   928.5    0.00     952    81.5
 206   10:20   81.5    29    4.4   271      6.1   928.5    0.00     969    81.7
 206   10:30   81.6    29    5.1   274      8.0   928.6    0.00     987    82.0
 206   10:40   81.4    28    5.6   275      7.9   928.6    0.00    1003    82.3
 206   10:50   80.5    29    5.3   263      7.8   928.7    0.00    1014    82.7
 206   11:00   81.6    28    3.7   267      6.6   928.7    0.00    1020    82.9
 206   11:10   82.1    29    4.8   273      7.3   928.7    0.00    1028    83.2
 206   11:20   81.7    29    4.6   274      7.1   928.7    0.00    1034    83.6
 206   11:30   81.6    29    4.8   276      8.1   928.7    0.00    1036    83.8
 206   11:40   81.4    29    4.5   268      8.1   928.8    0.00    1040    84.1
 206   11:50   81.9    29    5.8   271      8.2   928.8    0.00    1045    84.4
 206   12:00   81.8    28    5.4   271      7.6   928.9    0.00    1046    84.7
 206   12:10   82.1    29    5.1   266      8.4   929.0    0.00    1044    84.9
 206   12:20   82.1    29    5.3   264      8.8   928.9    0.00    1043    85.1
 206   12:30   82.1    28    5.7   258      9.3   929.0    0.00    1040    85.4
 206   12:40   82.0    29    5.7   261      8.0   929.1    0.00    1036    85.6
 206   12:50   82.7    29    5.7   260      8.3   929.0    0.00    1030    85.7
 206   13:00   81.8    30    5.7   263      8.7   929.0    0.00    1022    85.9
 206   13:10   82.6    29    5.6   265      9.0   928.9    0.00    1011    86.1
 206   13:20   82.8    28    5.6   264     10.2   928.9    0.00    1001    86.5
 206   13:30   82.9    28    5.1   269      7.9   928.9    0.00     991    86.8
 206   13:40   83.2    28    6.0   271      8.9   928.9    0.00     976    87.2
 206   13:50   82.2    28    5.9   271      9.2   928.9    0.00     934    87.5
 206   14:00   82.1    28    5.9   269      9.1   928.9    0.00     943    88.0
 206   14:10   81.9    29    6.2   266     10.4   928.8    0.00     925    88.5
 206   14:20   84.2    27    5.8   269      9.0   928.7    0.00     909    88.8
 206   14:30   83.6    28    5.8   274      8.8   928.8    0.00     876    89.2
 206   14:40   83.1    29    5.5   275      7.6   928.8    0.00     845    89.6
 206   14:50   82.6    28    5.4   274      8.2   928.7    0.00     820    90.1
 206   15:00   82.5    28    5.6   272      8.0   928.6    0.00     808    90.4
 206   15:10   82.6    28    5.8   275      9.8   928.4    0.00     786    90.8
 206   15:20   81.7    29    5.5   275      9.0   928.4    0.00     765    91.2
 206   15:30   82.4    28    5.1   279      8.5   928.4    0.00     731    91.5
 206   15:40   82.0    28    4.8   277      7.6   928.4    0.00     699    91.8
 206   15:50   82.6    28    6.7   276      8.9   928.2    0.00     639    92.2
 206   16:00   81.7    28    5.9   273      8.2   928.2    0.00     634    92.5
 206   16:10   81.9    27    5.9   277      7.8   928.1    0.00     601    92.8
 206   16:20   81.9    27    5.9   278      8.5   928.0    0.00     566    93.0
 206   16:30   82.8    26    5.9   280      8.3   928.0    0.00     532    93.2
 206   16:40   83.5    24    4.9   286      7.8   928.0    0.00     498    93.4
 206   16:50   82.6    24    4.7   281      7.1   928.0    0.00     463    93.7
 206   17:00   81.8    25    4.9   285      6.8   927.9    0.00     427    93.8
 206   17:10   82.1    27    4.7   289      6.3   927.9    0.00     392    93.9
 206   17:20   80.8    32    3.2   296      5.3   927.9    0.00     356    94.0
 206   17:30   80.3    32    3.0   301      4.9   927.9    0.00     320    94.1
 206   17:40   80.2    30    2.8   306      4.5   927.8    0.00     284    94.2
 206   17:50   80.9    31    2.7   303      4.6   927.9    0.00     248    94.2
 206   18:00   81.4    31    2.2   303      3.9   927.9    0.00     213    94.3
 206   18:10   79.0    36    2.5   296      3.9   927.9    0.00     180    94.3
 206   18:20   78.0    37    1.9   300      3.1   928.0    0.00     150    94.3
 206   18:30   77.5    37    2.1   330      3.7   928.0    0.00     123    94.2
 206   18:40   78.0    35    2.3   314      4.9   928.0    0.00      97    94.2
 206   18:50   76.8    38    1.3   314      3.4   928.0    0.00      68    94.1
 206   19:00   75.6    39    0.7   322      1.8   928.0    0.00      44    94.0
 206   19:10   74.4    40    1.1     5      2.6   928.0    0.00      26    93.9
 206   19:20   73.7    39    1.3    48      2.6   928.1    0.00      12    93.7
 206   19:30   74.9    34    2.8    57      4.2   928.0    0.00       4    93.5
 206   19:40   74.4    36    2.3     8      3.7   928.0    0.00       1    93.3
 206   19:50   73.8    37    1.9   336      3.0   928.1    0.00       0    93.1
 206   20:00   73.4    40    3.0    37      3.6   928.1    0.00       0    92.9
 206   20:10   72.5    42    3.2   331      4.5   928.2    0.00       0    92.7
 206   20:20   71.7    43    3.3   324      4.1   928.3    0.00       0    92.4
 206   20:30   71.8    42    2.7   316      3.9   928.3    0.00       0    92.2
 206   20:40   72.3    42    3.0   305      3.9   928.4    0.00       0    92.0

Return to Highlands Peak graphs page.


Western Regional Climate Center,wrcc@dri.edu